95NY weather

Fisher Airport
Wales Center/Cowlesville/, New York, United States

Public forecast

Using degrees Fahrenheit for public forecast. Weather courtesy of forecast.io.

METAR (pilot weather report)

Closest report is Buffalo Niagara International Airport, 14.5 nm (26.8 km) NW. Retrieved 2019/06/26 02:54 UTC (9 minutes ago):

KBUF 260254Z 22007KT 10SM CLR 19/14 A2994 RMK AO2 SLP137 T01890139 53011

TAF (pilot weather forecast)

Forecast is more than 12 hours old.

Closest forecast is Buffalo Niagara International Airport, 14.5 nm (26.8 km) NW. Retrieved 2019/06/25 00:39 UTC (1 day ago):

TAF KBUF 252336Z 2600/2624 23012G22KT P6SM FEW080 FM260200 23009KT P6SM FEW250 FM260900 22009KT P6SM SCT120 FM261400 23013G21KT P6SM FEW040 FM261900 24016G28KT P6SM SCT045 FM262300 24011KT P6SM FEW250